createdAt,value
2019-04-04T00:01:12.849Z,65.49
2019-04-04T00:03:43.903Z,65.49
2019-04-04T00:06:16.798Z,65.96
2019-04-04T00:08:50.424Z,66.38
2019-04-04T00:11:22.975Z,66.23
2019-04-04T00:13:57.935Z,66.39
2019-04-04T00:16:29.931Z,66.33
2019-04-04T00:19:01.823Z,66.70
2019-04-04T00:21:34.541Z,66.61
2019-04-04T00:24:05.018Z,66.82
2019-04-04T00:26:37.016Z,66.87
2019-04-04T00:29:09.044Z,66.76
2019-04-04T00:31:41.055Z,66.93
2019-04-04T00:34:14.015Z,67.19
2019-04-04T00:36:48.888Z,66.98
2019-04-04T00:39:20.812Z,67.23
2019-04-04T00:41:53.012Z,67.34
2019-04-04T00:44:25.879Z,67.58
2019-04-04T00:47:01.821Z,68.02
2019-04-04T00:49:35.556Z,67.97
2019-04-04T00:52:09.925Z,68.26
2019-04-04T00:54:41.023Z,67.76
2019-04-04T00:57:14.142Z,67.37
2019-04-04T00:59:46.986Z,67.63
2019-04-04T01:02:18.036Z,67.57
2019-04-04T01:04:49.985Z,67.57
2019-04-04T01:07:23.000Z,67.12
2019-04-04T01:09:54.040Z,67.10
2019-04-04T01:12:26.003Z,67.34
2019-04-04T01:15:00.153Z,67.28
2019-04-04T01:17:33.040Z,67.25
2019-04-04T01:20:07.535Z,67.10
2019-04-04T01:22:38.168Z,67.62
2019-04-04T01:25:11.222Z,67.81
2019-04-04T01:27:44.311Z,67.77
2019-04-04T01:30:15.145Z,67.53
2019-04-04T01:32:48.157Z,67.68
2019-04-04T01:35:19.078Z,67.86
2019-04-04T01:37:50.137Z,67.85
2019-04-04T01:40:21.267Z,67.42
2019-04-04T01:42:54.295Z,67.30
2019-04-04T01:45:27.206Z,66.99
2019-04-04T01:47:58.375Z,66.93
2019-04-04T01:50:31.441Z,67.16
2019-04-04T01:53:02.299Z,67.41
2019-04-04T01:55:35.031Z,67.67
2019-04-04T01:58:10.005Z,67.55
2019-04-04T02:00:41.355Z,67.63
2019-04-04T02:03:14.533Z,68.04
2019-04-04T02:05:47.306Z,68.15
2019-04-04T02:08:20.351Z,68.43
2019-04-04T02:10:53.406Z,68.46
2019-04-04T02:13:26.517Z,68.60
2019-04-04T02:15:59.461Z,69.00
2019-04-04T02:18:30.550Z,69.00
2019-04-04T02:21:02.414Z,69.02
2019-04-04T02:23:34.833Z,69.22
2019-04-04T02:26:05.848Z,69.24
2019-04-04T02:28:40.704Z,69.43
2019-04-04T02:31:13.573Z,69.48
2019-04-04T02:33:44.598Z,69.83
2019-04-04T02:36:17.807Z,70.37
2019-04-04T02:39:08.177Z,70.50
2019-04-04T02:41:38.599Z,70.19
2019-04-04T02:44:11.851Z,70.40
2019-04-04T02:46:45.649Z,70.42
2019-04-04T02:49:16.652Z,70.51
2019-04-04T02:51:50.682Z,70.74
2019-04-04T02:54:24.625Z,70.75
2019-04-04T02:56:56.611Z,71.01
2019-04-04T02:59:29.974Z,70.99
2019-04-04T03:02:04.910Z,70.68
2019-04-04T03:04:34.899Z,70.58
2019-04-04T03:07:05.571Z,70.29
2019-04-04T03:09:42.134Z,70.21
2019-04-04T03:12:11.689Z,70.18
2019-04-04T03:14:44.650Z,69.88
2019-04-04T03:17:17.643Z,70.22
2019-04-04T03:19:50.785Z,69.71
2019-04-04T03:22:24.613Z,69.85
2019-04-04T03:24:56.725Z,70.75
2019-04-04T03:27:31.940Z,71.25
2019-04-04T03:30:02.860Z,71.16
2019-04-04T03:32:34.102Z,70.76
2019-04-04T03:35:05.948Z,71.07
2019-04-04T03:37:40.937Z,72.04
2019-04-04T03:40:12.170Z,72.82
2019-04-04T03:42:45.007Z,73.51
2019-04-04T03:45:17.876Z,73.58
2019-04-04T03:47:50.925Z,73.71
2019-04-04T03:50:21.898Z,73.98
2019-04-04T03:52:52.910Z,73.69
2019-04-04T03:55:27.839Z,73.61
2019-04-04T03:57:58.783Z,73.38
2019-04-04T04:00:32.320Z,73.65
2019-04-04T04:03:03.955Z,73.09
2019-04-04T04:05:36.703Z,72.92
2019-04-04T04:08:07.987Z,72.83
2019-04-04T04:10:40.966Z,72.70
2019-04-04T04:13:17.297Z,72.76
2019-04-04T04:15:50.040Z,72.80
2019-04-04T04:18:22.916Z,72.72
2019-04-04T04:20:56.001Z,72.49
2019-04-04T04:23:29.075Z,72.82
2019-04-04T04:26:00.356Z,72.73
2019-04-04T04:28:31.300Z,72.46
2019-04-04T04:31:03.146Z,72.55
2019-04-04T04:33:34.927Z,72.53
2019-04-04T04:36:09.764Z,72.58
2019-04-04T04:38:41.115Z,72.59
2019-04-04T04:41:12.003Z,72.74
2019-04-04T04:43:44.065Z,72.93
2019-04-04T04:46:18.057Z,72.97
2019-04-04T04:48:49.198Z,73.14
2019-04-04T04:51:21.681Z,73.46
2019-04-04T04:53:53.150Z,73.46
2019-04-04T04:56:24.095Z,73.04
2019-04-04T04:58:56.136Z,72.73
2019-04-04T05:01:27.292Z,72.78
2019-04-04T05:04:02.524Z,72.88
2019-04-04T05:06:35.703Z,72.98
2019-04-04T05:09:08.102Z,72.81
2019-04-04T05:11:41.368Z,72.63
2019-04-04T05:14:12.287Z,72.59
2019-04-04T05:16:44.337Z,72.30
2019-04-04T05:19:15.197Z,72.30
2019-04-04T05:21:47.316Z,72.04
2019-04-04T05:24:18.760Z,71.93
2019-04-04T05:26:50.334Z,71.92
2019-04-04T05:29:21.278Z,71.50
2019-04-04T05:31:53.319Z,71.33
2019-04-04T05:34:24.258Z,70.79
2019-04-04T05:36:57.427Z,70.58
2019-04-04T05:39:28.375Z,70.28
2019-04-04T05:42:00.512Z,69.84
2019-04-04T05:44:34.318Z,69.29
2019-04-04T05:47:05.550Z,68.77
2019-04-04T05:49:37.939Z,68.65
2019-04-04T05:52:10.218Z,68.25
2019-04-04T05:54:41.229Z,67.93
2019-04-04T05:57:12.481Z,67.45
2019-04-04T05:59:45.492Z,67.00
2019-04-04T06:02:17.603Z,67.01
2019-04-04T06:04:48.921Z,66.25
2019-04-04T06:07:23.528Z,66.21
2019-04-04T06:09:55.428Z,66.26
2019-04-04T06:12:26.482Z,66.14
2019-04-04T06:14:56.847Z,65.77
2019-04-04T06:17:29.747Z,64.51
2019-04-04T06:20:02.672Z,63.27
2019-04-04T06:22:35.081Z,62.68
2019-04-04T06:25:06.391Z,61.75
2019-04-04T06:27:40.334Z,61.54
2019-04-04T06:30:11.702Z,61.35
2019-04-04T06:32:44.565Z,61.15
2019-04-04T06:35:17.498Z,60.54
2019-04-04T06:37:51.448Z,59.93
2019-04-04T06:40:23.505Z,59.78
2019-04-04T06:42:56.591Z,59.52
2019-04-04T06:45:29.798Z,58.99
2019-04-04T06:48:01.755Z,58.38
2019-04-04T06:50:32.281Z,58.15
2019-04-04T06:53:04.027Z,57.78
2019-04-04T06:55:39.775Z,57.20
2019-04-04T06:58:09.571Z,56.83
2019-04-04T07:00:42.305Z,56.67
2019-04-04T07:03:13.787Z,57.11
2019-04-04T07:05:44.756Z,56.84
2019-04-04T07:08:16.663Z,56.64
2019-04-04T07:10:57.942Z,56.35
2019-04-04T07:13:26.753Z,56.56
2019-04-04T07:16:06.117Z,56.35
2019-04-04T07:18:29.825Z,56.00
2019-04-04T07:21:03.692Z,55.63
2019-04-04T07:23:34.747Z,55.06
2019-04-04T07:26:05.848Z,54.71
2019-04-04T07:28:38.894Z,54.43
2019-04-04T07:31:09.284Z,54.37
2019-04-04T07:33:42.852Z,54.05
2019-04-04T07:36:14.845Z,53.83
2019-04-04T07:38:49.392Z,53.61
2019-04-04T07:41:20.795Z,53.36
2019-04-04T07:43:58.430Z,52.19
2019-04-04T07:46:29.825Z,51.71
2019-04-04T07:49:02.790Z,51.67
2019-04-04T07:51:35.217Z,51.07
2019-04-04T07:54:07.396Z,50.65
2019-04-04T07:56:38.995Z,49.96
2019-04-04T07:59:11.865Z,50.05
2019-04-04T08:01:50.941Z,49.90
2019-04-04T08:04:18.012Z,49.52
2019-04-04T08:06:51.102Z,49.01
2019-04-04T08:09:26.255Z,48.48
2019-04-04T08:11:56.952Z,48.35
2019-04-04T08:14:27.301Z,48.09
2019-04-04T08:16:58.759Z,47.33
2019-04-04T08:19:29.960Z,46.62
2019-04-04T08:22:03.063Z,45.95
2019-04-04T08:24:35.271Z,45.16
2019-04-04T08:27:06.191Z,44.84
2019-04-04T08:29:39.003Z,44.43
2019-04-04T08:32:12.170Z,44.29
2019-04-04T08:34:44.995Z,44.32
2019-04-04T08:37:18.115Z,44.30
2019-04-04T08:39:50.064Z,44.02
2019-04-04T08:42:21.225Z,43.99
2019-04-04T08:44:54.074Z,43.36
2019-04-04T08:47:27.098Z,42.23
2019-04-04T08:49:59.137Z,42.01
2019-04-04T08:52:32.244Z,41.68
2019-04-04T08:55:03.287Z,41.38
2019-04-04T08:57:35.240Z,41.32
2019-04-04T09:00:08.616Z,40.63
2019-04-04T09:02:39.387Z,40.01
2019-04-04T09:05:12.603Z,39.15
2019-04-04T09:07:44.234Z,39.21
2019-04-04T09:10:17.401Z,39.24
2019-04-04T09:12:50.256Z,39.23
2019-04-04T09:15:24.784Z,39.17
2019-04-04T09:17:56.267Z,39.16
2019-04-04T09:20:29.370Z,39.15
2019-04-04T09:23:02.344Z,38.38
2019-04-04T09:25:35.268Z,37.93
2019-04-04T09:28:10.071Z,38.34
2019-04-04T09:30:41.302Z,38.44
2019-04-04T09:33:13.380Z,38.51
2019-04-04T09:35:44.319Z,38.20
2019-04-04T09:38:14.702Z,37.79
2019-04-04T09:40:45.511Z,37.18
2019-04-04T09:43:16.317Z,36.95
2019-04-04T09:45:47.448Z,37.41
2019-04-04T09:48:20.340Z,37.27
2019-04-04T09:50:51.370Z,37.13
2019-04-04T09:53:22.541Z,37.90
2019-04-04T09:55:55.536Z,37.55
2019-04-04T09:58:27.479Z,37.83
2019-04-04T10:00:57.833Z,37.06
2019-04-04T10:03:30.509Z,36.63
2019-04-04T10:06:02.587Z,36.34
2019-04-04T10:08:33.594Z,35.90
2019-04-04T10:11:05.477Z,36.04
2019-04-04T10:13:35.926Z,36.20
2019-04-04T10:16:08.474Z,36.65
2019-04-04T10:18:41.673Z,36.90
2019-04-04T10:21:14.679Z,36.99
2019-04-04T10:23:47.644Z,37.10
2019-04-04T10:26:18.684Z,36.89
2019-04-04T10:28:49.068Z,36.82
2019-04-04T10:31:20.664Z,37.63
2019-04-04T10:33:54.027Z,37.75
2019-04-04T10:36:26.251Z,37.77
2019-04-04T10:38:56.762Z,37.83
2019-04-04T10:41:27.601Z,37.29
2019-04-04T10:43:59.750Z,37.47
2019-04-04T10:46:32.737Z,37.29
2019-04-04T10:49:08.223Z,36.96
2019-04-04T10:51:38.716Z,36.87
2019-04-04T10:54:11.703Z,36.86
2019-04-04T10:56:42.256Z,37.17
2019-04-04T10:59:14.819Z,37.09
2019-04-04T11:01:47.776Z,36.83
2019-04-04T11:04:20.722Z,36.83
2019-04-04T11:06:53.810Z,36.80
2019-04-04T11:09:26.824Z,36.94
2019-04-04T11:11:59.870Z,37.19
2019-04-04T11:14:33.464Z,37.49
2019-04-04T11:17:05.865Z,37.18
2019-04-04T11:19:37.855Z,37.14
2019-04-04T11:22:08.958Z,37.12
2019-04-04T11:24:41.907Z,37.81
2019-04-04T11:27:17.373Z,37.97
2019-04-04T11:29:47.905Z,37.93
2019-04-04T11:32:20.973Z,38.36
2019-04-04T11:34:53.985Z,37.88
2019-04-04T11:37:24.912Z,37.37
2019-04-04T11:39:56.955Z,37.29
2019-04-04T11:42:29.959Z,37.93
2019-04-04T11:45:02.104Z,38.31
2019-04-04T11:47:33.986Z,38.57
2019-04-04T11:50:07.561Z,38.61
2019-04-04T11:52:39.392Z,38.30
2019-04-04T11:55:09.899Z,38.29
2019-04-04T11:57:42.035Z,38.00
2019-04-04T12:00:19.132Z,38.31
2019-04-04T12:02:49.967Z,38.48
2019-04-04T12:05:21.178Z,38.29
2019-04-04T12:07:54.079Z,38.25
2019-04-04T12:10:26.014Z,37.35
2019-04-04T12:12:58.732Z,36.48
2019-04-04T12:15:31.034Z,36.04
2019-04-04T12:18:04.132Z,36.27
2019-04-04T12:20:35.440Z,35.79
2019-04-04T12:23:06.108Z,36.17
2019-04-04T12:25:39.085Z,36.41
2019-04-04T12:28:12.094Z,36.37
2019-04-04T12:30:45.176Z,36.38
2019-04-04T12:33:18.147Z,36.51
2019-04-04T12:35:51.042Z,36.88
2019-04-04T12:38:22.223Z,37.14
2019-04-04T12:40:55.167Z,37.45
2019-04-04T12:43:27.237Z,37.16
2019-04-04T12:45:58.206Z,37.25
2019-04-04T12:48:30.209Z,36.55
2019-04-04T12:51:00.596Z,36.13
2019-04-04T12:53:32.821Z,35.99
2019-04-04T12:56:06.220Z,36.53
2019-04-04T12:58:38.238Z,37.31
2019-04-04T13:01:09.241Z,37.24
2019-04-04T13:03:42.306Z,36.74
2019-04-04T13:06:15.365Z,36.35
2019-04-04T13:08:48.379Z,35.80
2019-04-04T13:11:21.288Z,35.49
2019-04-04T13:13:53.354Z,35.44
2019-04-04T13:16:24.402Z,35.65
2019-04-04T13:18:57.452Z,36.01
2019-04-04T13:21:30.483Z,36.52
2019-04-04T13:24:03.508Z,37.07
2019-04-04T13:26:34.282Z,37.61
2019-04-04T13:29:06.373Z,37.81
2019-04-04T13:31:39.393Z,38.33
2019-04-04T13:34:12.237Z,38.57
2019-04-04T13:36:45.448Z,38.79
2019-04-04T13:39:17.430Z,38.73
2019-04-04T13:41:48.532Z,38.36
2019-04-04T13:44:23.449Z,38.34
2019-04-04T13:46:55.558Z,38.03
2019-04-04T13:49:26.516Z,37.73
2019-04-04T13:52:01.230Z,37.30
2019-04-04T13:54:31.616Z,36.92
2019-04-04T13:57:03.506Z,35.84
2019-04-04T13:59:35.667Z,35.73
2019-04-04T14:02:06.708Z,35.33
2019-04-04T14:04:38.482Z,35.38
2019-04-04T14:07:11.634Z,35.14
2019-04-04T14:09:45.161Z,34.00
2019-04-04T14:12:16.647Z,33.24
2019-04-04T14:14:47.543Z,32.66
2019-04-04T14:17:23.149Z,33.34
2019-04-04T14:19:53.732Z,34.25
2019-04-04T14:22:26.625Z,34.58
2019-04-04T14:24:59.248Z,33.85
2019-04-04T14:27:30.650Z,33.42
2019-04-04T14:30:02.620Z,32.98
2019-04-04T14:32:34.772Z,30.74
2019-04-04T14:35:06.236Z,29.32
2019-04-04T14:37:36.639Z,28.12
2019-04-04T14:40:08.940Z,27.50
2019-04-04T14:42:41.704Z,28.87
2019-04-04T14:45:14.713Z,29.59
2019-04-04T14:47:47.657Z,29.90
2019-04-04T14:50:18.807Z,30.92
2019-04-04T14:52:51.791Z,31.85
2019-04-04T14:55:23.776Z,31.27
2019-04-04T14:57:54.725Z,29.90
2019-04-04T15:00:25.854Z,30.40
2019-04-04T15:02:58.835Z,31.98
2019-04-04T15:05:30.970Z,34.03
2019-04-04T15:08:02.761Z,33.09
2019-04-04T15:10:33.944Z,34.05
2019-04-04T15:13:06.842Z,35.60
2019-04-04T15:15:39.438Z,36.68
2019-04-04T15:18:10.975Z,36.45
2019-04-04T15:20:41.898Z,36.77
2019-04-04T15:23:14.870Z,37.26
2019-04-04T15:25:47.292Z,37.39
2019-04-04T15:28:17.877Z,36.67
2019-04-04T15:30:53.677Z,35.27
2019-04-04T15:33:25.313Z,35.47
2019-04-04T15:35:56.930Z,35.83
2019-04-04T15:38:28.897Z,36.61
2019-04-04T15:40:59.934Z,37.16
2019-04-04T15:43:31.915Z,36.77
2019-04-04T15:46:03.077Z,37.03
2019-04-04T15:48:35.878Z,37.28
2019-04-04T15:51:09.060Z,37.10
2019-04-04T15:53:40.035Z,37.60
2019-04-04T15:56:12.139Z,37.85
2019-04-04T15:58:45.142Z,38.28
2019-04-04T16:01:15.573Z,38.59
2019-04-04T16:03:48.142Z,38.64
2019-04-04T16:06:21.143Z,37.63
2019-04-04T16:08:54.094Z,37.65
2019-04-04T16:11:27.083Z,37.96
2019-04-04T16:14:00.321Z,37.96
2019-04-04T16:16:33.211Z,38.64
2019-04-04T16:19:06.182Z,38.33
2019-04-04T16:21:36.632Z,36.50
2019-04-04T16:24:09.169Z,34.33
2019-04-04T16:26:42.150Z,32.79
2019-04-04T16:29:14.234Z,31.98
2019-04-04T16:31:45.276Z,32.27
2019-04-04T16:34:16.316Z,32.34
2019-04-04T16:36:48.347Z,32.63
2019-04-04T16:39:19.589Z,31.82
2019-04-04T16:42:01.528Z,31.19
2019-04-04T16:44:25.316Z,31.20
2019-04-04T16:46:57.234Z,30.80
2019-04-04T16:49:30.366Z,31.07
2019-04-04T16:52:02.341Z,31.08
2019-04-04T16:54:33.297Z,31.15
2019-04-04T16:57:05.470Z,31.59
2019-04-04T16:59:35.923Z,32.56
2019-04-04T17:02:07.415Z,33.41
2019-04-04T17:04:39.443Z,34.20
2019-04-04T17:07:12.356Z,34.62
2019-04-04T17:09:45.405Z,35.47
2019-04-04T17:12:18.378Z,37.21
2019-04-04T17:14:51.718Z,38.50
2019-04-04T17:17:24.538Z,39.72
2019-04-04T17:19:57.720Z,40.53
2019-04-04T17:22:30.380Z,41.11
2019-04-04T17:25:02.387Z,41.78
2019-04-04T17:27:37.045Z,42.48
2019-04-04T17:30:08.365Z,43.34
2019-04-04T17:32:39.967Z,43.50
2019-04-04T17:35:13.103Z,43.96
2019-04-04T17:37:45.846Z,44.49
2019-04-04T17:40:17.394Z,44.48
2019-04-04T17:42:48.550Z,44.72
2019-04-04T17:45:23.244Z,44.83
2019-04-04T17:47:54.622Z,44.91
2019-04-04T17:50:27.564Z,45.18
2019-04-04T17:53:00.724Z,45.33
2019-04-04T17:55:32.721Z,45.69
2019-04-04T17:58:03.860Z,45.98
2019-04-04T18:00:35.939Z,46.26
2019-04-04T18:03:06.698Z,46.60
2019-04-04T18:05:39.748Z,47.35
2019-04-04T18:08:10.698Z,47.76
2019-04-04T18:10:42.731Z,48.09
2019-04-04T18:13:15.697Z,48.42
2019-04-04T18:15:48.758Z,48.35
2019-04-04T18:18:22.022Z,48.36
2019-04-04T18:20:54.750Z,48.56
2019-04-04T18:23:25.818Z,48.84
2019-04-04T18:25:57.741Z,48.85
2019-04-04T18:28:29.818Z,48.85
2019-04-04T18:31:00.824Z,49.00
2019-04-04T18:33:32.703Z,48.90
2019-04-04T18:36:03.836Z,49.04
2019-04-04T18:38:35.922Z,49.31
2019-04-04T18:41:06.779Z,49.66
2019-04-04T18:43:39.756Z,49.61
2019-04-04T18:46:12.823Z,49.64
2019-04-04T18:48:45.937Z,49.78
2019-04-04T18:51:18.985Z,50.19
2019-04-04T18:53:51.819Z,50.28
2019-04-04T18:56:24.843Z,50.04
2019-04-04T18:58:57.821Z,50.10
2019-04-04T19:01:28.896Z,50.17
2019-04-04T19:04:00.972Z,49.92
2019-04-04T19:06:32.857Z,50.03
2019-04-04T19:09:14.705Z,50.15
2019-04-04T19:11:38.991Z,49.97
2019-04-04T19:14:11.022Z,49.94
2019-04-04T19:16:45.898Z,49.78
2019-04-04T19:19:18.025Z,49.41
2019-04-04T19:21:50.885Z,49.17
2019-04-04T19:24:23.517Z,49.52
2019-04-04T19:26:54.149Z,49.32
2019-04-04T19:29:27.644Z,49.38
2019-04-04T19:32:00.142Z,49.75
2019-04-04T19:34:31.016Z,49.94
2019-04-04T19:37:03.032Z,49.72
2019-04-04T19:39:34.029Z,49.46
2019-04-04T19:42:06.337Z,49.35
2019-04-04T19:44:36.736Z,49.17
2019-04-04T19:47:08.275Z,49.21
2019-04-04T19:49:40.057Z,49.52
2019-04-04T19:52:12.247Z,49.76
2019-04-04T19:54:45.124Z,49.83
2019-04-04T19:57:17.215Z,49.99
2019-04-04T19:59:48.226Z,50.04
2019-04-04T20:02:21.229Z,50.20
2019-04-04T20:04:54.228Z,50.21
2019-04-04T20:07:27.308Z,50.46
2019-04-04T20:10:00.630Z,50.51
2019-04-04T20:12:33.299Z,50.92
2019-04-04T20:15:05.407Z,51.44
2019-04-04T20:17:37.662Z,51.92
2019-04-04T20:20:10.612Z,52.28
2019-04-04T20:22:42.245Z,52.59
2019-04-04T20:25:14.455Z,52.96
2019-04-04T20:27:54.525Z,53.36
2019-04-04T20:30:21.859Z,53.98
2019-04-04T20:32:52.268Z,54.30
2019-04-04T20:35:23.413Z,54.38
2019-04-04T20:37:55.298Z,54.39
2019-04-04T20:40:27.431Z,54.32
2019-04-04T20:43:01.926Z,53.96
2019-04-04T20:45:34.327Z,53.89
2019-04-04T20:48:05.342Z,54.08
2019-04-04T20:50:36.335Z,54.19
2019-04-04T20:53:09.586Z,53.95
2019-04-04T20:55:41.011Z,53.67
2019-04-04T20:58:11.545Z,53.63
2019-04-04T21:00:43.648Z,54.18
2019-04-04T21:03:15.535Z,54.28
2019-04-04T21:05:48.490Z,54.61
2019-04-04T21:08:21.564Z,54.63
2019-04-04T21:10:54.620Z,54.87
2019-04-04T21:13:27.544Z,55.12
2019-04-04T21:16:00.439Z,55.47
2019-04-04T21:18:33.496Z,55.87
2019-04-04T21:21:06.501Z,55.68
2019-04-04T21:23:38.481Z,55.63
2019-04-04T21:26:09.516Z,56.01
2019-04-04T21:28:42.564Z,56.51
2019-04-04T21:31:14.774Z,57.03
2019-04-04T21:33:45.452Z,57.45
2019-04-04T21:36:16.536Z,56.39
2019-04-04T21:38:48.472Z,56.88
2019-04-04T21:41:21.699Z,57.31
2019-04-04T21:43:53.211Z,57.40
2019-04-04T21:46:24.574Z,57.60
2019-04-04T21:48:57.539Z,57.58
2019-04-04T21:51:28.622Z,57.50
2019-04-04T21:54:00.588Z,57.37
2019-04-04T21:56:31.610Z,57.38
2019-04-04T21:59:04.613Z,57.15
2019-04-04T22:01:36.232Z,57.59
2019-04-04T22:04:06.772Z,57.35
2019-04-04T22:06:37.238Z,57.50
2019-04-04T22:09:11.740Z,57.83
2019-04-04T22:11:45.730Z,58.02
2019-04-04T22:14:21.892Z,58.26
2019-04-04T22:16:51.782Z,58.50
2019-04-04T22:19:22.670Z,58.82
2019-04-04T22:21:54.848Z,59.25
2019-04-04T22:24:25.897Z,59.16
2019-04-04T22:26:57.827Z,59.77
2019-04-04T22:29:29.860Z,60.05
2019-04-04T22:32:00.764Z,60.06
2019-04-04T22:34:35.472Z,60.40
2019-04-04T22:37:06.847Z,60.28
2019-04-04T22:39:39.802Z,60.37
2019-04-04T22:42:12.947Z,60.64
2019-04-04T22:44:45.879Z,60.44
2019-04-04T22:47:17.032Z,60.92
2019-04-04T22:49:47.975Z,61.26
2019-04-04T22:52:19.956Z,60.97
2019-04-04T22:54:51.996Z,60.96
2019-04-04T22:57:22.864Z,60.88
2019-04-04T22:59:54.999Z,61.22
2019-04-04T23:02:25.957Z,61.30
2019-04-04T23:04:58.976Z,61.33
2019-04-04T23:07:30.915Z,61.63
2019-04-04T23:10:01.296Z,61.83
2019-04-04T23:12:33.022Z,62.24
2019-04-04T23:15:03.915Z,62.51
2019-04-04T23:17:36.300Z,62.80
2019-04-04T23:20:07.849Z,63.19
2019-04-04T23:22:52.259Z,63.54
2019-04-04T23:25:13.145Z,63.62
2019-04-04T23:27:46.022Z,63.81
2019-04-04T23:30:19.185Z,64.21
2019-04-04T23:32:50.025Z,64.47
2019-04-04T23:35:22.082Z,64.69
2019-04-04T23:37:55.435Z,64.70
2019-04-04T23:40:27.121Z,64.91
2019-04-04T23:42:58.076Z,64.48
2019-04-04T23:45:30.158Z,64.75
2019-04-04T23:48:01.133Z,64.80
2019-04-04T23:50:33.341Z,64.95
2019-04-04T23:53:04.238Z,65.30
2019-04-04T23:55:36.324Z,65.71
2019-04-04T23:58:09.301Z,65.87
